sensor_id;sensor_type;location;lat;lon;timestamp;pressure;altitude;pressure_sealevel;temperature;humidity
73267;BME280;61495;53.400;7.608;2024-01-25T00:01:39;102229.16;;;5.92;100.00
73267;BME280;61495;53.400;7.608;2024-01-25T00:04:04;102229.56;;;5.97;100.00
73267;BME280;61495;53.400;7.608;2024-01-25T00:06:29;102235.16;;;5.94;100.00
73267;BME280;61495;53.400;7.608;2024-01-25T00:08:55;102232.78;;;5.91;100.00
73267;BME280;61495;53.400;7.608;2024-01-25T00:11:20;102237.84;;;5.94;100.00
73267;BME280;61495;53.400;7.608;2024-01-25T00:13:45;102223.84;;;5.92;100.00
73267;BME280;61495;53.400;7.608;2024-01-25T00:16:11;102234.19;;;5.95;100.00
73267;BME280;61495;53.400;7.608;2024-01-25T00:18:36;102228.31;;;5.92;100.00
73267;BME280;61495;53.400;7.608;2024-01-25T00:21:01;102216.56;;;5.94;100.00
73267;BME280;61495;53.400;7.608;2024-01-25T00:23:27;102225.81;;;5.90;100.00
73267;BME280;61495;53.400;7.608;2024-01-25T00:25:52;102230.28;;;5.90;100.00
73267;BME280;61495;53.400;7.608;2024-01-25T00:28:18;102224.13;;;5.89;100.00
73267;BME280;61495;53.400;7.608;2024-01-25T00:30:44;102234.78;;;5.89;100.00
73267;BME280;61495;53.400;7.608;2024-01-25T00:33:09;102238.13;;;5.91;100.00
73267;BME280;61495;53.400;7.608;2024-01-25T00:35:35;102231.13;;;5.90;100.00
73267;BME280;61495;53.400;7.608;2024-01-25T00:38:00;102230.56;;;5.87;100.00
73267;BME280;61495;53.400;7.608;2024-01-25T00:40:26;102236.75;;;5.87;100.00
73267;BME280;61495;53.400;7.608;2024-01-25T00:42:52;102242.91;;;5.88;100.00
73267;BME280;61495;53.400;7.608;2024-01-25T00:45:18;102233.38;;;5.85;100.00
73267;BME280;61495;53.400;7.608;2024-01-25T00:47:44;102228.03;;;5.85;100.00
73267;BME280;61495;53.400;7.608;2024-01-25T00:50:10;102224.53;;;5.85;100.00
73267;BME280;61495;53.400;7.608;2024-01-25T00:52:36;102227.59;;;5.80;100.00
73267;BME280;61495;53.400;7.608;2024-01-25T00:55:02;102230.94;;;5.82;100.00
73267;BME280;61495;53.400;7.608;2024-01-25T00:57:27;102214.88;;;5.74;100.00
73267;BME280;61495;53.400;7.608;2024-01-25T00:59:53;102236.44;;;5.81;100.00
73267;BME280;61495;53.400;7.608;2024-01-25T01:02:20;102242.59;;;5.81;100.00
73267;BME280;61495;53.400;7.608;2024-01-25T01:04:47;102252.38;;;5.81;100.00
73267;BME280;61495;53.400;7.608;2024-01-25T01:07:12;102252.50;;;5.79;100.00
73267;BME280;61495;53.400;7.608;2024-01-25T01:09:38;102240.91;;;5.80;100.00
73267;BME280;61495;53.400;7.608;2024-01-25T01:12:03;102252.66;;;5.78;100.00
73267;BME280;61495;53.400;7.608;2024-01-25T01:14:28;102261.63;;;5.77;100.00
73267;BME280;61495;53.400;7.608;2024-01-25T01:16:54;102268.91;;;5.75;100.00
73267;BME280;61495;53.400;7.608;2024-01-25T01:19:20;102268.47;;;5.79;100.00
73267;BME280;61495;53.400;7.608;2024-01-25T01:21:45;102271.28;;;5.78;100.00
73267;BME280;61495;53.400;7.608;2024-01-25T01:24:11;102267.78;;;5.77;100.00
73267;BME280;61495;53.400;7.608;2024-01-25T01:26:37;102270.88;;;5.73;100.00
73267;BME280;61495;53.400;7.608;2024-01-25T01:29:03;102277.28;;;5.70;100.00
73267;BME280;61495;53.400;7.608;2024-01-25T01:31:28;102273.94;;;5.68;100.00
73267;BME280;61495;53.400;7.608;2024-01-25T01:33:53;102272.56;;;5.64;100.00
73267;BME280;61495;53.400;7.608;2024-01-25T01:36:19;102279.41;;;5.67;100.00
73267;BME280;61495;53.400;7.608;2024-01-25T01:38:44;102287.50;;;5.65;100.00
73267;BME280;61495;53.400;7.608;2024-01-25T01:41:10;102292.13;;;5.63;100.00
73267;BME280;61495;53.400;7.608;2024-01-25T01:43:38;102298.41;;;5.62;100.00
73267;BME280;61495;53.400;7.608;2024-01-25T01:48:51;102308.50;;;5.68;100.00
73267;BME280;61495;53.400;7.608;2024-01-25T01:51:17;102299.13;;;5.64;100.00
73267;BME280;61495;53.400;7.608;2024-01-25T01:53:42;102307.22;;;5.63;100.00
73267;BME280;61495;53.400;7.608;2024-01-25T01:56:09;102309.78;;;5.64;100.00
73267;BME280;61495;53.400;7.608;2024-01-25T01:58:35;102303.59;;;5.64;100.00
73267;BME280;61495;53.400;7.608;2024-01-25T02:01:01;102317.03;;;5.62;100.00
73267;BME280;61495;53.400;7.608;2024-01-25T02:03:27;102313.94;;;5.57;100.00
73267;BME280;61495;53.400;7.608;2024-01-25T02:05:53;102318.97;;;5.60;100.00
73267;BME280;61495;53.400;7.608;2024-01-25T02:08:19;102292.09;;;5.44;100.00
73267;BME280;61495;53.400;7.608;2024-01-25T02:10:44;102319.53;;;5.54;100.00
73267;BME280;61495;53.400;7.608;2024-01-25T02:13:10;102329.31;;;5.53;100.00
73267;BME280;61495;53.400;7.608;2024-01-25T02:15:35;102333.78;;;5.53;100.00
73267;BME280;61495;53.400;7.608;2024-01-25T02:18:01;102334.38;;;5.56;100.00
73267;BME280;61495;53.400;7.608;2024-01-25T02:20:26;102338.84;;;5.56;100.00
73267;BME280;61495;53.400;7.608;2024-01-25T02:22:52;102346.81;;;5.56;100.00
73267;BME280;61495;53.400;7.608;2024-01-25T02:25:17;102342.50;;;5.55;100.00
73267;BME280;61495;53.400;7.608;2024-01-25T02:27:43;102352.84;;;5.58;100.00
73267;BME280;61495;53.400;7.608;2024-01-25T02:30:08;102346.38;;;5.51;100.00
73267;BME280;61495;53.400;7.608;2024-01-25T02:32:34;102352.00;;;5.57;100.00
73267;BME280;61495;53.400;7.608;2024-01-25T02:35:00;102353.13;;;5.55;100.00
73267;BME280;61495;53.400;7.608;2024-01-25T02:37:26;102341.06;;;5.51;100.00
73267;BME280;61495;53.400;7.608;2024-01-25T02:39:51;102350.59;;;5.53;100.00
73267;BME280;61495;53.400;7.608;2024-01-25T02:42:17;102336.31;;;5.45;100.00
73267;BME280;61495;53.400;7.608;2024-01-25T02:44:43;102339.94;;;5.44;100.00
73267;BME280;61495;53.400;7.608;2024-01-25T02:47:09;102347.63;;;5.47;100.00
73267;BME280;61495;53.400;7.608;2024-01-25T02:49:34;102334.19;;;5.39;100.00
73267;BME280;61495;53.400;7.608;2024-01-25T02:52:00;102358.13;;;5.48;100.00
73267;BME280;61495;53.400;7.608;2024-01-25T02:54:26;102357.56;;;5.45;100.00
73267;BME280;61495;53.400;7.608;2024-01-25T02:56:51;102357.84;;;5.42;100.00
73267;BME280;61495;53.400;7.608;2024-01-25T02:59:17;102361.47;;;5.41;100.00
73267;BME280;61495;53.400;7.608;2024-01-25T03:01:43;102366.78;;;5.41;100.00
73267;BME280;61495;53.400;7.608;2024-01-25T03:04:10;102365.13;;;5.40;100.00
73267;BME280;61495;53.400;7.608;2024-01-25T03:06:35;102369.84;;;5.36;100.00
73267;BME280;61495;53.400;7.608;2024-01-25T03:09:01;102379.66;;;5.45;100.00
73267;BME280;61495;53.400;7.608;2024-01-25T03:11:29;102380.22;;;5.39;100.00
73267;BME280;61495;53.400;7.608;2024-01-25T03:13:55;102375.00;;;5.38;100.00
73267;BME280;61495;53.400;7.608;2024-01-25T03:16:20;102374.31;;;5.36;100.00
73267;BME280;61495;53.400;7.608;2024-01-25T03:18:46;102380.31;;;5.38;100.00
73267;BME280;61495;53.400;7.608;2024-01-25T03:21:11;102382.44;;;5.34;100.00
73267;BME280;61495;53.400;7.608;2024-01-25T03:23:37;102393.78;;;5.36;100.00
73267;BME280;61495;53.400;7.608;2024-01-25T03:26:03;102388.72;;;5.33;100.00
73267;BME280;61495;53.400;7.608;2024-01-25T03:28:29;102393.63;;;5.38;100.00
73267;BME280;61495;53.400;7.608;2024-01-25T03:30:54;102396.81;;;5.32;100.00
73267;BME280;61495;53.400;7.608;2024-01-25T03:33:19;102410.69;;;5.35;100.00
73267;BME280;61495;53.400;7.608;2024-01-25T03:35:45;102399.47;;;5.32;100.00
73267;BME280;61495;53.400;7.608;2024-01-25T03:38:10;102400.78;;;5.37;100.00
73267;BME280;61495;53.400;7.608;2024-01-25T03:40:35;102409.81;;;5.35;100.00
73267;BME280;61495;53.400;7.608;2024-01-25T03:43:01;102409.97;;;5.33;100.00
73267;BME280;61495;53.400;7.608;2024-01-25T03:45:26;102412.63;;;5.33;100.00
73267;BME280;61495;53.400;7.608;2024-01-25T03:47:51;102411.78;;;5.33;100.00
73267;BME280;61495;53.400;7.608;2024-01-25T03:50:17;102402.28;;;5.30;100.00
73267;BME280;61495;53.400;7.608;2024-01-25T03:52:42;102412.06;;;5.30;100.00
73267;BME280;61495;53.400;7.608;2024-01-25T03:55:08;102412.91;;;5.30;100.00
73267;BME280;61495;53.400;7.608;2024-01-25T03:57:33;102420.19;;;5.28;100.00
73267;BME280;61495;53.400;7.608;2024-01-25T03:59:58;102411.88;;;5.22;100.00
73267;BME280;61495;53.400;7.608;2024-01-25T04:02:24;102438.34;;;5.33;100.00
73267;BME280;61495;53.400;7.608;2024-01-25T04:04:49;102435.28;;;5.28;100.00
73267;BME280;61495;53.400;7.608;2024-01-25T04:07:15;102442.97;;;5.31;100.00
73267;BME280;61495;53.400;7.608;2024-01-25T04:09:40;102435.00;;;5.31;100.00
73267;BME280;61495;53.400;7.608;2024-01-25T04:12:06;102441.69;;;5.25;100.00
73267;BME280;61495;53.400;7.608;2024-01-25T04:14:31;102423.75;;;5.18;100.00
73267;BME280;61495;53.400;7.608;2024-01-25T04:16:57;102431.88;;;5.26;100.00
73267;BME280;61495;53.400;7.608;2024-01-25T04:19:22;102430.06;;;5.26;100.00
73267;BME280;61495;53.400;7.608;2024-01-25T04:21:47;102432.03;;;5.24;100.00
73267;BME280;61495;53.400;7.608;2024-01-25T04:24:13;102440.13;;;5.23;100.00
73267;BME280;61495;53.400;7.608;2024-01-25T04:26:38;102428.53;;;5.24;100.00
73267;BME280;61495;53.400;7.608;2024-01-25T04:29:03;102435.38;;;5.26;100.00
73267;BME280;61495;53.400;7.608;2024-01-25T04:31:29;102433.56;;;5.27;100.00
73267;BME280;61495;53.400;7.608;2024-01-25T04:33:54;102424.06;;;5.24;100.00
73267;BME280;61495;53.400;7.608;2024-01-25T04:36:19;102431.19;;;5.24;100.00
73267;BME280;61495;53.400;7.608;2024-01-25T04:38:45;102434.69;;;5.24;100.00
73267;BME280;61495;53.400;7.608;2024-01-25T04:41:11;102431.19;;;5.24;100.00
73267;BME280;61495;53.400;7.608;2024-01-25T04:43:36;102434.09;;;5.21;100.00
73267;BME280;61495;53.400;7.608;2024-01-25T04:46:02;102419.97;;;5.11;100.00
73267;BME280;61495;53.400;7.608;2024-01-25T04:48:29;102417.03;;;5.14;100.00
73267;BME280;61495;53.400;7.608;2024-01-25T04:50:56;102424.00;;;5.15;100.00
73267;BME280;61495;53.400;7.608;2024-01-25T04:53:23;102427.66;;;5.14;100.00
73267;BME280;61495;53.400;7.608;2024-01-25T04:55:48;102426.22;;;5.10;100.00
73267;BME280;61495;53.400;7.608;2024-01-25T04:58:13;102440.78;;;5.15;100.00
73267;BME280;61495;53.400;7.608;2024-01-25T05:00:39;102437.69;;;5.10;100.00
73267;BME280;61495;53.400;7.608;2024-01-25T05:03:05;102434.91;;;5.12;100.00
73267;BME280;61495;53.400;7.608;2024-01-25T05:05:30;102432.66;;;5.07;100.00
73267;BME280;61495;53.400;7.608;2024-01-25T05:07:55;102453.97;;;5.17;100.00
73267;BME280;61495;53.400;7.608;2024-01-25T05:10:21;102448.91;;;5.14;100.00
73267;BME280;61495;53.400;7.608;2024-01-25T05:12:48;102458.69;;;5.13;100.00
73267;BME280;61495;53.400;7.608;2024-01-25T05:15:13;102455.72;;;5.07;100.00
73267;BME280;61495;53.400;7.608;2024-01-25T05:17:39;102461.28;;;5.03;100.00
73267;BME280;61495;53.400;7.608;2024-01-25T05:20:05;102461.66;;;4.99;100.00
73267;BME280;61495;53.400;7.608;2024-01-25T05:22:30;102469.94;;;5.05;100.00
73267;BME280;61495;53.400;7.608;2024-01-25T05:24:56;102470.94;;;5.04;100.00
73267;BME280;61495;53.400;7.608;2024-01-25T05:27:22;102477.47;;;5.00;100.00
73267;BME280;61495;53.400;7.608;2024-01-25T05:29:48;102471.84;;;4.94;100.00
73267;BME280;61495;53.400;7.608;2024-01-25T05:32:13;102471.56;;;4.97;100.00
73267;BME280;61495;53.400;7.608;2024-01-25T05:34:39;102469.06;;;4.95;100.00
73267;BME280;61495;53.400;7.608;2024-01-25T05:37:04;102478.97;;;4.93;100.00
73267;BME280;61495;53.400;7.608;2024-01-25T05:39:29;102466.41;;;4.95;100.00
73267;BME280;61495;53.400;7.608;2024-01-25T05:41:55;102468.06;;;4.96;100.00
73267;BME280;61495;53.400;7.608;2024-01-25T05:44:20;102470.88;;;4.95;100.00
73267;BME280;61495;53.400;7.608;2024-01-25T05:46:45;102471.72;;;4.95;100.00
73267;BME280;61495;53.400;7.608;2024-01-25T05:49:11;102478.25;;;4.91;100.00
73267;BME280;61495;53.400;7.608;2024-01-25T05:51:36;102481.63;;;4.93;100.00
73267;BME280;61495;53.400;7.608;2024-01-25T05:54:05;102478.25;;;4.91;100.00
73267;BME280;61495;53.400;7.608;2024-01-25T05:56:30;102489.84;;;4.90;100.00
73267;BME280;61495;53.400;7.608;2024-01-25T05:58:56;102488.44;;;4.86;100.00
73267;BME280;61495;53.400;7.608;2024-01-25T06:01:21;102493.75;;;4.86;100.00
73267;BME280;61495;53.400;7.608;2024-01-25T06:03:47;102485.63;;;4.88;100.00
73267;BME280;61495;53.400;7.608;2024-01-25T06:06:12;102497.69;;;4.92;100.00
73267;BME280;61495;53.400;7.608;2024-01-25T06:08:38;102482.78;;;4.80;100.00
73267;BME280;61495;53.400;7.608;2024-01-25T06:11:03;102489.41;;;4.85;100.00
73267;BME280;61495;53.400;7.608;2024-01-25T06:13:31;102487.59;;;4.86;100.00
73267;BME280;61495;53.400;7.608;2024-01-25T06:15:57;102493.84;;;4.85;100.00
73267;BME280;61495;53.400;7.608;2024-01-25T06:18:22;102493.25;;;4.81;100.00
73267;BME280;61495;53.400;7.608;2024-01-25T06:20:47;102506.53;;;4.81;100.00
73267;BME280;61495;53.400;7.608;2024-01-25T06:23:13;102495.09;;;4.81;100.00
73267;BME280;61495;53.400;7.608;2024-01-25T06:25:38;102497.16;;;4.77;100.00
73267;BME280;61495;53.400;7.608;2024-01-25T06:28:03;102498.13;;;4.76;100.00
73267;BME280;61495;53.400;7.608;2024-01-25T06:30:29;102506.78;;;4.78;100.00
73267;BME280;61495;53.400;7.608;2024-01-25T06:32:54;102506.78;;;4.78;100.00
73267;BME280;61495;53.400;7.608;2024-01-25T06:35:20;102501.47;;;4.78;100.00
73267;BME280;61495;53.400;7.608;2024-01-25T06:37:45;102507.66;;;4.79;100.00
73267;BME280;61495;53.400;7.608;2024-01-25T06:40:11;102518.53;;;4.76;100.00
73267;BME280;61495;53.400;7.608;2024-01-25T06:42:36;102520.81;;;4.80;100.00
73267;BME280;61495;53.400;7.608;2024-01-25T06:45:01;102529.97;;;4.76;100.00
73267;BME280;61495;53.400;7.608;2024-01-25T06:47:27;102533.34;;;4.78;100.00
73267;BME280;61495;53.400;7.608;2024-01-25T06:49:52;102526.38;;;4.77;100.00
73267;BME280;61495;53.400;7.608;2024-01-25T06:52:18;102527.47;;;4.75;100.00
73267;BME280;61495;53.400;7.608;2024-01-25T06:54:44;102538.78;;;4.77;100.00
73267;BME280;61495;53.400;7.608;2024-01-25T06:57:10;102518.13;;;4.60;100.00
73267;BME280;61495;53.400;7.608;2024-01-25T06:59:35;102529.38;;;4.73;100.00
73267;BME280;61495;53.400;7.608;2024-01-25T07:02:01;102530.63;;;4.69;100.00
73267;BME280;61495;53.400;7.608;2024-01-25T07:04:28;102539.66;;;4.66;100.00
73267;BME280;61495;53.400;7.608;2024-01-25T07:06:54;102540.75;;;4.64;100.00
73267;BME280;61495;53.400;7.608;2024-01-25T07:09:19;102543.06;;;4.68;100.00
73267;BME280;61495;53.400;7.608;2024-01-25T07:11:45;102547.91;;;4.63;100.00
73267;BME280;61495;53.400;7.608;2024-01-25T07:14:10;102554.03;;;4.64;100.00
73267;BME280;61495;53.400;7.608;2024-01-25T07:16:36;102564.28;;;4.68;100.00
73267;BME280;61495;53.400;7.608;2024-01-25T07:19:01;102567.91;;;4.67;100.00
73267;BME280;61495;53.400;7.608;2024-01-25T07:21:26;102573.22;;;4.67;100.00
73267;BME280;61495;53.400;7.608;2024-01-25T07:23:52;102580.22;;;4.68;100.00
73267;BME280;61495;53.400;7.608;2024-01-25T07:26:18;102581.44;;;4.64;100.00
73267;BME280;61495;53.400;7.608;2024-01-25T07:28:43;102577.56;;;4.68;100.00
73267;BME280;61495;53.400;7.608;2024-01-25T07:31:09;102560.00;;;4.56;100.00
73267;BME280;61495;53.400;7.608;2024-01-25T07:33:35;102581.44;;;4.64;100.00
73267;BME280;61495;53.400;7.608;2024-01-25T07:36:02;102578.19;;;4.61;100.00
73267;BME280;61495;53.400;7.608;2024-01-25T07:38:28;102581.69;;;4.61;100.00
73267;BME280;61495;53.400;7.608;2024-01-25T07:40:53;102580.47;;;4.65;100.00
73267;BME280;61495;53.400;7.608;2024-01-25T07:43:18;102580.31;;;4.67;100.00
73267;BME280;61495;53.400;7.608;2024-01-25T07:45:44;102566.50;;;4.63;100.00
73267;BME280;61495;53.400;7.608;2024-01-25T07:48:09;102580.22;;;4.68;100.00
73267;BME280;61495;53.400;7.608;2024-01-25T07:50:34;102572.25;;;4.68;100.00
73267;BME280;61495;53.400;7.608;2024-01-25T07:53:00;102568.75;;;4.68;100.00
73267;BME280;61495;53.400;7.608;2024-01-25T07:55:27;102569.59;;;4.68;100.00
73267;BME280;61495;53.400;7.608;2024-01-25T07:57:53;102578.53;;;4.67;100.00
73267;BME280;61495;53.400;7.608;2024-01-25T08:00:19;102580.94;;;4.70;100.00
73267;BME280;61495;53.400;7.608;2024-01-25T08:02:44;102569.59;;;4.68;100.00
73267;BME280;61495;53.400;7.608;2024-01-25T08:05:10;102572.59;;;4.75;100.00
73267;BME280;61495;53.400;7.608;2024-01-25T08:07:36;102575.25;;;4.75;100.00
73267;BME280;61495;53.400;7.608;2024-01-25T08:10:03;102574.41;;;4.74;100.00
73267;BME280;61495;53.400;7.608;2024-01-25T08:12:29;102581.13;;;4.78;100.00
73267;BME280;61495;53.400;7.608;2024-01-25T08:14:55;102579.72;;;4.74;100.00
73267;BME280;61495;53.400;7.608;2024-01-25T08:17:20;102586.44;;;4.78;100.00
73267;BME280;61495;53.400;7.608;2024-01-25T08:19:46;102587.53;;;4.76;100.00
73267;BME280;61495;53.400;7.608;2024-01-25T08:22:16;102587.69;;;4.74;100.00
73267;BME280;61495;53.400;7.608;2024-01-25T08:24:42;102594.28;;;4.80;100.00
73267;BME280;61495;53.400;7.608;2024-01-25T08:27:08;102590.09;;;4.77;100.00
73267;BME280;61495;53.400;7.608;2024-01-25T08:29:34;102591.50;;;4.81;100.00
73267;BME280;61495;53.400;7.608;2024-01-25T08:31:59;102585.94;;;4.84;100.00
73267;BME280;61495;53.400;7.608;2024-01-25T08:34:24;102587.63;;;4.85;100.00
73267;BME280;61495;53.400;7.608;2024-01-25T08:36:50;102570.50;;;4.78;100.00
73267;BME280;61495;53.400;7.608;2024-01-25T08:39:15;102592.94;;;4.85;100.00
73267;BME280;61495;53.400;7.608;2024-01-25T08:41:41;102591.00;;;4.87;100.00
73267;BME280;61495;53.400;7.608;2024-01-25T08:44:07;102591.84;;;4.88;100.00
73267;BME280;61495;53.400;7.608;2024-01-25T08:46:33;102591.00;;;4.87;100.00
73267;BME280;61495;53.400;7.608;2024-01-25T08:48:58;102595.25;;;4.90;100.00
73267;BME280;61495;53.400;7.608;2024-01-25T08:51:23;102604.03;;;4.90;100.00
73267;BME280;61495;53.400;7.608;2024-01-25T08:53:49;102603.66;;;4.95;100.00
73267;BME280;61495;53.400;7.608;2024-01-25T08:56:16;102606.16;;;4.96;100.00
73267;BME280;61495;53.400;7.608;2024-01-25T08:58:42;102609.56;;;4.98;100.00
73267;BME280;61495;53.400;7.608;2024-01-25T09:01:07;102617.28;;;5.01;100.00
73267;BME280;61495;53.400;7.608;2024-01-25T09:03:33;102610.28;;;5.00;100.00
73267;BME280;61495;53.400;7.608;2024-01-25T09:05:58;102616.28;;;5.02;100.00
73267;BME280;61495;53.400;7.608;2024-01-25T09:08:29;102613.28;;;5.07;100.00
73267;BME280;61495;53.400;7.608;2024-01-25T09:10:55;102615.19;;;5.05;100.00
73267;BME280;61495;53.400;7.608;2024-01-25T09:13:20;102619.19;;;5.11;100.00
73267;BME280;61495;53.400;7.608;2024-01-25T09:15:45;102608.81;;;5.08;100.00
73267;BME280;61495;53.400;7.608;2024-01-25T09:18:12;102616.72;;;5.19;100.00
73267;BME280;61495;53.400;7.608;2024-01-25T09:20:37;102617.31;;;5.22;100.00
73267;BME280;61495;53.400;7.608;2024-01-25T09:23:03;102608.22;;;5.25;100.00
73267;BME280;61495;53.400;7.608;2024-01-25T09:25:28;102615.69;;;5.31;100.00
73267;BME280;61495;53.400;7.608;2024-01-25T09:27:53;102610.38;;;5.31;100.00
73267;BME280;61495;53.400;7.608;2024-01-25T09:30:19;102617.34;;;5.32;100.00
73267;BME280;61495;53.400;7.608;2024-01-25T09:32:44;102632.66;;;5.39;100.00
73267;BME280;61495;53.400;7.608;2024-01-25T09:35:10;102637.72;;;5.42;100.00
73267;BME280;61495;53.400;7.608;2024-01-25T09:37:35;102636.75;;;5.43;100.00
73267;BME280;61495;53.400;7.608;2024-01-25T09:40:00;102636.63;;;5.45;100.00
73267;BME280;61495;53.400;7.608;2024-01-25T09:42:26;102615.75;;;5.40;100.00
73267;BME280;61495;53.400;7.608;2024-01-25T09:44:54;102642.38;;;5.50;100.00
73267;BME280;61495;53.400;7.608;2024-01-25T09:47:20;102628.97;;;5.51;100.00
73267;BME280;61495;53.400;7.608;2024-01-25T09:49:46;102638.50;;;5.54;100.00
73267;BME280;61495;53.400;7.608;2024-01-25T09:52:12;102640.91;;;5.57;100.00
73267;BME280;61495;53.400;7.608;2024-01-25T09:54:39;102651.28;;;5.60;100.00
73267;BME280;61495;53.400;7.608;2024-01-25T09:57:24;102646.66;;;5.62;100.00
73267;BME280;61495;53.400;7.608;2024-01-25T09:59:52;102639.28;;;5.66;100.00
73267;BME280;61495;53.400;7.608;2024-01-25T10:02:19;102642.66;;;5.68;100.00
73267;BME280;61495;53.400;7.608;2024-01-25T10:04:49;102642.53;;;5.69;100.00
73267;BME280;61495;53.400;7.608;2024-01-25T10:07:14;102649.97;;;5.75;100.00
73267;BME280;61495;53.400;7.608;2024-01-25T10:09:41;102658.28;;;5.82;100.00
73267;BME280;61495;53.400;7.608;2024-01-25T10:12:07;102660.81;;;5.83;100.00
73267;BME280;61495;53.400;7.608;2024-01-25T10:14:32;102654.13;;;5.89;100.00
73267;BME280;61495;53.400;7.608;2024-01-25T10:17:00;102662.00;;;5.90;100.00
73267;BME280;61495;53.400;7.608;2024-01-25T10:19:25;102667.06;;;5.93;100.00
73267;BME280;61495;53.400;7.608;2024-01-25T10:21:50;102658.09;;;5.94;100.00
73267;BME280;61495;53.400;7.608;2024-01-25T10:24:16;102668.47;;;5.97;100.00
73267;BME280;61495;53.400;7.608;2024-01-25T10:26:41;102662.19;;;5.98;100.00
73267;BME280;61495;53.400;7.608;2024-01-25T10:29:09;102661.91;;;6.01;100.00
73267;BME280;61495;53.400;7.608;2024-01-25T10:31:38;102662.03;;;6.00;100.00
73267;BME280;61495;53.400;7.608;2024-01-25T10:34:05;102666.28;;;6.02;100.00
73267;BME280;61495;53.400;7.608;2024-01-25T10:36:30;102664.31;;;6.04;100.00
73267;BME280;61495;53.400;7.608;2024-01-25T10:38:57;102662.34;;;6.06;100.00
73267;BME280;61495;53.400;7.608;2024-01-25T10:41:24;102649.63;;;6.10;100.00
73267;BME280;61495;53.400;7.608;2024-01-25T10:43:50;102644.91;;;6.13;100.00
73267;BME280;61495;53.400;7.608;2024-01-25T10:46:16;102642.28;;;6.23;100.00
73267;BME280;61495;53.400;7.608;2024-01-25T10:48:42;102635.56;;;6.29;100.00
73267;BME280;61495;53.400;7.608;2024-01-25T10:51:08;102625.25;;;6.35;100.00
73267;BME280;61495;53.400;7.608;2024-01-25T10:53:35;102623.97;;;6.39;100.00
73267;BME280;61495;53.400;7.608;2024-01-25T10:56:02;102620.06;;;6.43;100.00
73267;BME280;61495;53.400;7.608;2024-01-25T10:58:31;102602.56;;;6.41;100.00
73267;BME280;61495;53.400;7.608;2024-01-25T11:00:59;102614.03;;;6.51;100.00
73267;BME280;61495;53.400;7.608;2024-01-25T11:03:29;102630.75;;;6.53;100.00
73267;BME280;61495;53.400;7.608;2024-01-25T11:06:06;102633.41;;;6.53;100.00
73267;BME280;61495;53.400;7.608;2024-01-25T11:08:33;102637.63;;;6.55;100.00
73267;BME280;61495;53.400;7.608;2024-01-25T11:10:58;102637.88;;;6.52;100.00
73267;BME280;61495;53.400;7.608;2024-01-25T11:13:26;102644.59;;;6.56;100.00
73267;BME280;61495;53.400;7.608;2024-01-25T11:15:53;102629.47;;;6.57;100.00
73267;BME280;61495;53.400;7.608;2024-01-25T11:18:19;102630.22;;;6.59;100.00
73267;BME280;61495;53.400;7.608;2024-01-25T11:20:47;102628.66;;;6.66;100.00
73267;BME280;61495;53.400;7.608;2024-01-25T11:23:15;102625.19;;;6.75;100.00
73267;BME280;61495;53.400;7.608;2024-01-25T11:25:44;102619.44;;;6.80;100.00
73267;BME280;61495;53.400;7.608;2024-01-25T11:28:11;102614.66;;;6.83;100.00
73267;BME280;61495;53.400;7.608;2024-01-25T11:30:39;102623.66;;;6.92;100.00
73267;BME280;61495;53.400;7.608;2024-01-25T11:33:06;102618.03;;;7.04;100.00
73267;BME280;61495;53.400;7.608;2024-01-25T11:35:31;102625.34;;;7.12;100.00
73267;BME280;61495;53.400;7.608;2024-01-25T11:37:57;102621.28;;;7.17;100.00
73267;BME280;61495;53.400;7.608;2024-01-25T11:40:23;102622.81;;;7.20;100.00
73267;BME280;61495;53.400;7.608;2024-01-25T11:42:49;102626.75;;;7.25;100.00
73267;BME280;61495;53.400;7.608;2024-01-25T11:45:16;102621.13;;;7.28;100.00
73267;BME280;61495;53.400;7.608;2024-01-25T11:47:42;102622.81;;;7.30;100.00
73267;BME280;61495;53.400;7.608;2024-01-25T11:50:10;102618.47;;;7.28;100.00
73267;BME280;61495;53.400;7.608;2024-01-25T11:52:36;102605.28;;;7.27;100.00
73267;BME280;61495;53.400;7.608;2024-01-25T11:55:06;102611.31;;;7.29;100.00
73267;BME280;61495;53.400;7.608;2024-01-25T11:57:40;102613.00;;;7.30;100.00
73267;BME280;61495;53.400;7.608;2024-01-25T12:00:10;102613.97;;;7.29;100.00
73267;BME280;61495;53.400;7.608;2024-01-25T12:02:38;102623.09;;;7.26;100.00
73267;BME280;61495;53.400;7.608;2024-01-25T12:05:04;102614.94;;;7.28;100.00
73267;BME280;61495;53.400;7.608;2024-01-25T12:07:31;102607.41;;;7.23;100.00
73267;BME280;61495;53.400;7.608;2024-01-25T12:09:59;102599.53;;;7.22;100.00
73267;BME280;61495;53.400;7.608;2024-01-25T12:12:25;102610.06;;;7.23;100.00
73267;BME280;61495;53.400;7.608;2024-01-25T12:14:50;102616.38;;;7.22;100.00
73267;BME280;61495;53.400;7.608;2024-01-25T12:17:17;102609.38;;;7.21;100.00
73267;BME280;61495;53.400;7.608;2024-01-25T12:19:42;102613.56;;;7.24;100.00
73267;BME280;61495;53.400;7.608;2024-01-25T12:22:08;102613.53;;;7.34;100.00
73267;BME280;61495;53.400;7.608;2024-01-25T12:24:33;102618.47;;;7.38;100.00
73267;BME280;61495;53.400;7.608;2024-01-25T12:26:58;102607.50;;;7.41;100.00
73267;BME280;61495;53.400;7.608;2024-01-25T12:29:24;102605.41;;;7.45;100.00
73267;BME280;61495;53.400;7.608;2024-01-25T12:31:49;102608.47;;;7.50;100.00
73267;BME280;61495;53.400;7.608;2024-01-25T12:34:14;102604.09;;;7.58;100.00
73267;BME280;61495;53.400;7.608;2024-01-25T12:36:40;102599.72;;;7.67;100.00
73267;BME280;61495;53.400;7.608;2024-01-25T12:39:06;102589.06;;;7.67;100.00
73267;BME280;61495;53.400;7.608;2024-01-25T12:41:32;102588.59;;;7.81;100.00
73267;BME280;61495;53.400;7.608;2024-01-25T12:43:57;102583.38;;;7.89;100.00
73267;BME280;61495;53.400;7.608;2024-01-25T12:46:23;102579.41;;;7.93;100.00